ダラス/フォートワース の空港の天気 - METARとTAF

ダラス・フォートワース国際空港 ( KDFW / DFW ) - アメリカ テキサス州ダラス & フォートワース
飛行場実況気象(Metar)
観測時間08/17 05:53 CDT (08/17 10:53 UTC)
風向・風速南 6m/s
視程10km以上
天気現象
なし
気温27.8℃
湿度69%
気圧1009.6hPa
METARKDFW 171053Z 18012KT 10SM CLR 28/22 A2985 RMK AO2 SLP096 T02780217
過去の天気等 Google飛行場航空写真 Wunderground天気予報

過去48時間のMETAR

飛行場予報(TAF)
発表時間: 8/17 06:26 CDT (8/17 11:26 UTC)
予報対象時間: 17日7時 CDT ~ 18日13時 CDT
風向・風速南 7m/s
視程10km以上
少しの雲 雲底高度 2130m
少しの雲 雲底高度 9140m
KDFW 171126Z 1712/1818 17014KT P6SM FEW070 FEW300